sensor_id;sensor_type;location;lat;lon;timestamp;temperature;humidity
10282;DHT22;5186;59.472;18.048;2022-12-18T00:01:15;0.60;99.90
10282;DHT22;5186;59.472;18.048;2022-12-18T00:03:40;0.60;99.90
10282;DHT22;5186;59.472;18.048;2022-12-18T00:06:06;0.60;99.90
10282;DHT22;5186;59.472;18.048;2022-12-18T00:08:31;0.70;99.90
10282;DHT22;5186;59.472;18.048;2022-12-18T00:11:04;0.70;99.90
10282;DHT22;5186;59.472;18.048;2022-12-18T00:13:30;0.70;99.90
10282;DHT22;5186;59.472;18.048;2022-12-18T00:15:55;0.70;99.90
10282;DHT22;5186;59.472;18.048;2022-12-18T00:18:26;0.70;99.90
10282;DHT22;5186;59.472;18.048;2022-12-18T00:20:51;0.70;99.90
10282;DHT22;5186;59.472;18.048;2022-12-18T00:23:17;0.70;99.90
10282;DHT22;5186;59.472;18.048;2022-12-18T00:25:42;0.70;99.90
10282;DHT22;5186;59.472;18.048;2022-12-18T00:28:08;0.70;99.90
10282;DHT22;5186;59.472;18.048;2022-12-18T00:30:33;0.70;99.90
10282;DHT22;5186;59.472;18.048;2022-12-18T00:32:59;0.80;99.90
10282;DHT22;5186;59.472;18.048;2022-12-18T00:35:25;0.80;99.90
10282;DHT22;5186;59.472;18.048;2022-12-18T00:37:50;0.80;99.90
10282;DHT22;5186;59.472;18.048;2022-12-18T00:40:16;0.80;99.90
10282;DHT22;5186;59.472;18.048;2022-12-18T00:42:41;0.80;99.90
10282;DHT22;5186;59.472;18.048;2022-12-18T00:45:29;0.80;99.90
10282;DHT22;5186;59.472;18.048;2022-12-18T00:47:56;0.80;99.90
10282;DHT22;5186;59.472;18.048;2022-12-18T00:50:23;0.80;99.90
10282;DHT22;5186;59.472;18.048;2022-12-18T00:52:49;0.80;99.90
10282;DHT22;5186;59.472;18.048;2022-12-18T00:55:15;0.80;99.90
10282;DHT22;5186;59.472;18.048;2022-12-18T00:57:41;0.80;99.90
10282;DHT22;5186;59.472;18.048;2022-12-18T01:00:10;0.80;99.90
10282;DHT22;5186;59.472;18.048;2022-12-18T01:02:36;0.80;99.90
10282;DHT22;5186;59.472;18.048;2022-12-18T01:05:01;0.80;99.90
10282;DHT22;5186;59.472;18.048;2022-12-18T01:07:27;0.80;99.90
10282;DHT22;5186;59.472;18.048;2022-12-18T01:09:53;0.80;99.90
10282;DHT22;5186;59.472;18.048;2022-12-18T01:12:18;0.80;99.90
10282;DHT22;5186;59.472;18.048;2022-12-18T01:14:44;0.90;99.90
10282;DHT22;5186;59.472;18.048;2022-12-18T01:17:09;0.90;99.90
10282;DHT22;5186;59.472;18.048;2022-12-18T01:19:35;0.90;99.90
10282;DHT22;5186;59.472;18.048;2022-12-18T01:22:00;0.90;99.90
10282;DHT22;5186;59.472;18.048;2022-12-18T01:24:26;0.90;99.90
10282;DHT22;5186;59.472;18.048;2022-12-18T01:26:52;1.00;99.90
10282;DHT22;5186;59.472;18.048;2022-12-18T01:29:17;1.00;99.90
10282;DHT22;5186;59.472;18.048;2022-12-18T01:31:43;0.90;99.90
10282;DHT22;5186;59.472;18.048;2022-12-18T01:34:09;1.00;99.90
10282;DHT22;5186;59.472;18.048;2022-12-18T01:36:37;1.00;99.90
10282;DHT22;5186;59.472;18.048;2022-12-18T01:39:13;1.00;99.90
10282;DHT22;5186;59.472;18.048;2022-12-18T01:41:39;1.00;99.90
10282;DHT22;5186;59.472;18.048;2022-12-18T01:45:03;1.00;99.90
10282;DHT22;5186;59.472;18.048;2022-12-18T01:47:43;1.00;99.90
10282;DHT22;5186;59.472;18.048;2022-12-18T01:52:46;1.00;99.90
10282;DHT22;5186;59.472;18.048;2022-12-18T01:55:14;1.10;99.90
10282;DHT22;5186;59.472;18.048;2022-12-18T01:57:41;1.10;99.90
10282;DHT22;5186;59.472;18.048;2022-12-18T02:00:13;1.10;99.90
10282;DHT22;5186;59.472;18.048;2022-12-18T02:02:40;1.10;99.90
10282;DHT22;5186;59.472;18.048;2022-12-18T02:05:07;1.10;99.90
10282;DHT22;5186;59.472;18.048;2022-12-18T02:07:44;1.10;99.90
10282;DHT22;5186;59.472;18.048;2022-12-18T02:13:26;1.10;99.90
10282;DHT22;5186;59.472;18.048;2022-12-18T02:16:10;1.10;99.90
10282;DHT22;5186;59.472;18.048;2022-12-18T02:18:47;1.10;99.90
10282;DHT22;5186;59.472;18.048;2022-12-18T02:24:35;1.20;99.90
10282;DHT22;5186;59.472;18.048;2022-12-18T02:27:06;1.10;99.90
10282;DHT22;5186;59.472;18.048;2022-12-18T02:29:37;1.20;99.90
10282;DHT22;5186;59.472;18.048;2022-12-18T02:32:10;1.20;99.90
10282;DHT22;5186;59.472;18.048;2022-12-18T02:34:38;1.20;99.90
10282;DHT22;5186;59.472;18.048;2022-12-18T02:37:06;1.20;99.90
10282;DHT22;5186;59.472;18.048;2022-12-18T02:39:34;1.20;99.90
10282;DHT22;5186;59.472;18.048;2022-12-18T02:42:01;1.20;99.90
10282;DHT22;5186;59.472;18.048;2022-12-18T02:44:54;1.20;99.90
10282;DHT22;5186;59.472;18.048;2022-12-18T02:47:22;1.20;99.90
10282;DHT22;5186;59.472;18.048;2022-12-18T02:52:42;1.20;99.90
10282;DHT22;5186;59.472;18.048;2022-12-18T02:58:12;1.30;99.90
10282;DHT22;5186;59.472;18.048;2022-12-18T03:01:07;1.30;99.90
10282;DHT22;5186;59.472;18.048;2022-12-18T03:06:19;1.30;99.90
10282;DHT22;5186;59.472;18.048;2022-12-18T03:08:48;1.30;99.90
10282;DHT22;5186;59.472;18.048;2022-12-18T03:11:17;1.30;99.90
10282;DHT22;5186;59.472;18.048;2022-12-18T03:14:03;1.20;99.90
10282;DHT22;5186;59.472;18.048;2022-12-18T03:16:31;1.20;99.90
10282;DHT22;5186;59.472;18.048;2022-12-18T03:18:58;1.30;99.90
10282;DHT22;5186;59.472;18.048;2022-12-18T03:21:33;1.20;99.90
10282;DHT22;5186;59.472;18.048;2022-12-18T03:24:01;1.20;99.90
10282;DHT22;5186;59.472;18.048;2022-12-18T03:26:29;1.30;99.90
10282;DHT22;5186;59.472;18.048;2022-12-18T03:28:59;1.20;99.90
10282;DHT22;5186;59.472;18.048;2022-12-18T03:31:29;1.20;99.90
10282;DHT22;5186;59.472;18.048;2022-12-18T03:33:59;1.20;99.90
10282;DHT22;5186;59.472;18.048;2022-12-18T03:36:26;1.20;99.90
10282;DHT22;5186;59.472;18.048;2022-12-18T03:38:52;1.20;99.90
10282;DHT22;5186;59.472;18.048;2022-12-18T03:41:51;1.20;99.90
10282;DHT22;5186;59.472;18.048;2022-12-18T03:44:20;1.30;99.90
10282;DHT22;5186;59.472;18.048;2022-12-18T03:47:08;1.30;99.90
10282;DHT22;5186;59.472;18.048;2022-12-18T03:49:50;1.20;99.90
10282;DHT22;5186;59.472;18.048;2022-12-18T03:52:35;1.20;99.90
10282;DHT22;5186;59.472;18.048;2022-12-18T03:55:04;1.30;99.90
10282;DHT22;5186;59.472;18.048;2022-12-18T03:57:31;1.30;99.90
10282;DHT22;5186;59.472;18.048;2022-12-18T04:00:08;1.30;99.90
10282;DHT22;5186;59.472;18.048;2022-12-18T04:02:36;1.30;99.90
10282;DHT22;5186;59.472;18.048;2022-12-18T04:05:05;1.20;99.90
10282;DHT22;5186;59.472;18.048;2022-12-18T04:07:32;1.20;99.90
10282;DHT22;5186;59.472;18.048;2022-12-18T04:09:59;1.20;99.90
10282;DHT22;5186;59.472;18.048;2022-12-18T04:12:28;1.20;99.90
10282;DHT22;5186;59.472;18.048;2022-12-18T04:14:54;1.20;99.90
10282;DHT22;5186;59.472;18.048;2022-12-18T04:17:20;1.10;99.90
10282;DHT22;5186;59.472;18.048;2022-12-18T04:19:46;1.10;99.90
10282;DHT22;5186;59.472;18.048;2022-12-18T04:22:11;1.10;99.90
10282;DHT22;5186;59.472;18.048;2022-12-18T04:24:37;1.10;99.90
10282;DHT22;5186;59.472;18.048;2022-12-18T04:27:03;1.10;99.90
10282;DHT22;5186;59.472;18.048;2022-12-18T04:29:29;1.20;99.90
10282;DHT22;5186;59.472;18.048;2022-12-18T04:31:54;1.10;99.90
10282;DHT22;5186;59.472;18.048;2022-12-18T04:34:20;1.20;99.90
10282;DHT22;5186;59.472;18.048;2022-12-18T04:36:46;1.10;99.90
10282;DHT22;5186;59.472;18.048;2022-12-18T04:39:12;1.10;99.90
10282;DHT22;5186;59.472;18.048;2022-12-18T04:41:38;1.10;99.90
10282;DHT22;5186;59.472;18.048;2022-12-18T04:44:04;1.10;99.90
10282;DHT22;5186;59.472;18.048;2022-12-18T04:46:29;1.10;99.90
10282;DHT22;5186;59.472;18.048;2022-12-18T04:48:55;1.10;99.90
10282;DHT22;5186;59.472;18.048;2022-12-18T04:51:20;1.10;99.90
10282;DHT22;5186;59.472;18.048;2022-12-18T04:53:46;1.10;99.90
10282;DHT22;5186;59.472;18.048;2022-12-18T04:56:14;1.10;99.90
10282;DHT22;5186;59.472;18.048;2022-12-18T04:58:41;1.00;99.90
10282;DHT22;5186;59.472;18.048;2022-12-18T05:01:08;1.10;99.90
10282;DHT22;5186;59.472;18.048;2022-12-18T05:03:35;1.00;99.90
10282;DHT22;5186;59.472;18.048;2022-12-18T05:06:00;1.00;99.90
10282;DHT22;5186;59.472;18.048;2022-12-18T05:08:26;1.00;99.90
10282;DHT22;5186;59.472;18.048;2022-12-18T05:11:07;1.00;99.90
10282;DHT22;5186;59.472;18.048;2022-12-18T05:13:33;1.00;99.90
10282;DHT22;5186;59.472;18.048;2022-12-18T05:15:59;1.00;99.90
10282;DHT22;5186;59.472;18.048;2022-12-18T05:18:26;1.00;99.90
10282;DHT22;5186;59.472;18.048;2022-12-18T05:20:52;1.00;99.90
10282;DHT22;5186;59.472;18.048;2022-12-18T05:23:19;1.00;99.90
10282;DHT22;5186;59.472;18.048;2022-12-18T05:25:55;1.00;99.90
10282;DHT22;5186;59.472;18.048;2022-12-18T05:28:22;1.00;99.90
10282;DHT22;5186;59.472;18.048;2022-12-18T05:30:52;1.00;99.90
10282;DHT22;5186;59.472;18.048;2022-12-18T05:33:19;0.90;99.90
10282;DHT22;5186;59.472;18.048;2022-12-18T05:35:50;0.90;99.90
10282;DHT22;5186;59.472;18.048;2022-12-18T05:38:17;0.90;99.90
10282;DHT22;5186;59.472;18.048;2022-12-18T05:40:43;0.90;99.90
10282;DHT22;5186;59.472;18.048;2022-12-18T05:43:09;0.90;99.90
10282;DHT22;5186;59.472;18.048;2022-12-18T05:45:37;0.90;99.90
10282;DHT22;5186;59.472;18.048;2022-12-18T05:48:04;0.90;99.90
10282;DHT22;5186;59.472;18.048;2022-12-18T05:50:29;0.90;99.90
10282;DHT22;5186;59.472;18.048;2022-12-18T05:52:55;0.90;99.90
10282;DHT22;5186;59.472;18.048;2022-12-18T05:55:20;0.90;99.90
10282;DHT22;5186;59.472;18.048;2022-12-18T05:57:46;0.90;99.90
10282;DHT22;5186;59.472;18.048;2022-12-18T06:00:12;0.90;99.90
10282;DHT22;5186;59.472;18.048;2022-12-18T06:02:38;1.00;99.90
10282;DHT22;5186;59.472;18.048;2022-12-18T06:05:04;1.00;99.90
10282;DHT22;5186;59.472;18.048;2022-12-18T06:07:29;0.90;99.90
10282;DHT22;5186;59.472;18.048;2022-12-18T06:09:55;1.00;99.90
10282;DHT22;5186;59.472;18.048;2022-12-18T06:12:20;1.00;99.90
10282;DHT22;5186;59.472;18.048;2022-12-18T06:14:46;0.90;99.90
10282;DHT22;5186;59.472;18.048;2022-12-18T06:17:12;0.90;99.90
10282;DHT22;5186;59.472;18.048;2022-12-18T06:19:37;0.90;99.90
10282;DHT22;5186;59.472;18.048;2022-12-18T06:22:03;1.00;99.90
10282;DHT22;5186;59.472;18.048;2022-12-18T06:24:29;1.00;99.90
10282;DHT22;5186;59.472;18.048;2022-12-18T06:26:54;1.00;99.90
10282;DHT22;5186;59.472;18.048;2022-12-18T06:29:20;1.00;99.90
10282;DHT22;5186;59.472;18.048;2022-12-18T06:31:45;1.10;99.90
10282;DHT22;5186;59.472;18.048;2022-12-18T06:34:11;1.10;99.90
10282;DHT22;5186;59.472;18.048;2022-12-18T06:36:37;1.10;99.90
10282;DHT22;5186;59.472;18.048;2022-12-18T06:39:02;1.10;99.90
10282;DHT22;5186;59.472;18.048;2022-12-18T06:41:28;1.10;99.90
10282;DHT22;5186;59.472;18.048;2022-12-18T06:43:53;1.10;99.90
10282;DHT22;5186;59.472;18.048;2022-12-18T06:46:19;1.10;99.90
10282;DHT22;5186;59.472;18.048;2022-12-18T06:48:49;1.10;99.90
10282;DHT22;5186;59.472;18.048;2022-12-18T06:51:17;1.10;99.90
10282;DHT22;5186;59.472;18.048;2022-12-18T06:53:43;1.10;99.90
10282;DHT22;5186;59.472;18.048;2022-12-18T06:56:08;1.10;99.90
10282;DHT22;5186;59.472;18.048;2022-12-18T06:58:34;1.10;99.90
10282;DHT22;5186;59.472;18.048;2022-12-18T07:01:04;1.10;99.90
10282;DHT22;5186;59.472;18.048;2022-12-18T07:03:30;1.10;99.90
10282;DHT22;5186;59.472;18.048;2022-12-18T07:05:56;1.10;99.90
10282;DHT22;5186;59.472;18.048;2022-12-18T07:08:21;1.10;99.90
10282;DHT22;5186;59.472;18.048;2022-12-18T07:10:47;1.10;99.90
10282;DHT22;5186;59.472;18.048;2022-12-18T07:13:15;1.10;99.90
10282;DHT22;5186;59.472;18.048;2022-12-18T07:15:41;1.10;99.90
10282;DHT22;5186;59.472;18.048;2022-12-18T07:18:06;1.10;99.90
10282;DHT22;5186;59.472;18.048;2022-12-18T07:20:32;1.10;99.90
10282;DHT22;5186;59.472;18.048;2022-12-18T07:22:58;1.10;99.90
10282;DHT22;5186;59.472;18.048;2022-12-18T07:25:23;1.10;99.90
10282;DHT22;5186;59.472;18.048;2022-12-18T07:27:49;1.20;99.90
10282;DHT22;5186;59.472;18.048;2022-12-18T07:30:14;1.10;99.90
10282;DHT22;5186;59.472;18.048;2022-12-18T07:32:40;1.20;99.90
10282;DHT22;5186;59.472;18.048;2022-12-18T07:35:06;1.10;99.90
10282;DHT22;5186;59.472;18.048;2022-12-18T07:37:32;1.20;99.90
10282;DHT22;5186;59.472;18.048;2022-12-18T07:39:57;1.10;99.90
10282;DHT22;5186;59.472;18.048;2022-12-18T07:42:23;1.10;99.90
10282;DHT22;5186;59.472;18.048;2022-12-18T07:44:58;1.20;99.90
10282;DHT22;5186;59.472;18.048;2022-12-18T07:47:24;1.10;99.90
10282;DHT22;5186;59.472;18.048;2022-12-18T07:49:50;1.20;99.90
10282;DHT22;5186;59.472;18.048;2022-12-18T07:52:16;1.20;99.90
10282;DHT22;5186;59.472;18.048;2022-12-18T07:54:41;1.20;99.90
10282;DHT22;5186;59.472;18.048;2022-12-18T07:57:08;1.20;99.90
10282;DHT22;5186;59.472;18.048;2022-12-18T07:59:34;1.20;99.90
10282;DHT22;5186;59.472;18.048;2022-12-18T08:02:00;1.20;99.90
10282;DHT22;5186;59.472;18.048;2022-12-18T08:04:26;1.20;99.90
10282;DHT22;5186;59.472;18.048;2022-12-18T08:06:51;1.30;99.90
10282;DHT22;5186;59.472;18.048;2022-12-18T08:09:17;1.30;99.90
10282;DHT22;5186;59.472;18.048;2022-12-18T08:11:43;1.30;99.90
10282;DHT22;5186;59.472;18.048;2022-12-18T08:14:09;1.30;99.90
10282;DHT22;5186;59.472;18.048;2022-12-18T08:16:35;1.30;99.90
10282;DHT22;5186;59.472;18.048;2022-12-18T08:19:01;1.30;99.90
10282;DHT22;5186;59.472;18.048;2022-12-18T08:21:29;1.40;99.90
10282;DHT22;5186;59.472;18.048;2022-12-18T08:23:56;1.40;99.90
10282;DHT22;5186;59.472;18.048;2022-12-18T08:26:23;1.40;99.90
10282;DHT22;5186;59.472;18.048;2022-12-18T08:28:50;1.40;99.90
10282;DHT22;5186;59.472;18.048;2022-12-18T08:31:16;1.50;99.90
10282;DHT22;5186;59.472;18.048;2022-12-18T08:33:41;1.50;99.90
10282;DHT22;5186;59.472;18.048;2022-12-18T08:36:08;1.50;99.90
10282;DHT22;5186;59.472;18.048;2022-12-18T08:38:34;1.60;99.90
10282;DHT22;5186;59.472;18.048;2022-12-18T08:41:00;1.60;99.90
10282;DHT22;5186;59.472;18.048;2022-12-18T08:43:26;1.60;99.90
10282;DHT22;5186;59.472;18.048;2022-12-18T08:46:11;1.70;99.90
10282;DHT22;5186;59.472;18.048;2022-12-18T08:48:36;1.60;99.90
10282;DHT22;5186;59.472;18.048;2022-12-18T08:51:02;1.60;99.90
10282;DHT22;5186;59.472;18.048;2022-12-18T08:53:28;1.70;99.90
10282;DHT22;5186;59.472;18.048;2022-12-18T08:55:53;1.70;99.90
10282;DHT22;5186;59.472;18.048;2022-12-18T08:58:21;1.70;99.90
10282;DHT22;5186;59.472;18.048;2022-12-18T09:00:46;1.80;99.90
10282;DHT22;5186;59.472;18.048;2022-12-18T09:03:13;1.80;99.90
10282;DHT22;5186;59.472;18.048;2022-12-18T09:05:39;1.90;99.90
10282;DHT22;5186;59.472;18.048;2022-12-18T09:08:04;1.90;99.90
10282;DHT22;5186;59.472;18.048;2022-12-18T09:10:30;1.90;99.90
10282;DHT22;5186;59.472;18.048;2022-12-18T09:12:55;1.90;99.90
10282;DHT22;5186;59.472;18.048;2022-12-18T09:15:21;2.00;99.90
10282;DHT22;5186;59.472;18.048;2022-12-18T09:17:47;2.00;99.90
10282;DHT22;5186;59.472;18.048;2022-12-18T09:20:13;2.00;99.90
10282;DHT22;5186;59.472;18.048;2022-12-18T09:22:39;2.10;99.90
10282;DHT22;5186;59.472;18.048;2022-12-18T09:25:04;2.10;99.90
10282;DHT22;5186;59.472;18.048;2022-12-18T09:27:33;2.10;99.90
10282;DHT22;5186;59.472;18.048;2022-12-18T09:29:59;2.20;99.90
10282;DHT22;5186;59.472;18.048;2022-12-18T09:32:25;2.20;99.90
10282;DHT22;5186;59.472;18.048;2022-12-18T09:34:50;2.20;99.90
10282;DHT22;5186;59.472;18.048;2022-12-18T09:37:16;2.30;99.90
10282;DHT22;5186;59.472;18.048;2022-12-18T09:39:41;2.30;99.90
10282;DHT22;5186;59.472;18.048;2022-12-18T09:42:12;2.30;99.90
10282;DHT22;5186;59.472;18.048;2022-12-18T09:44:45;2.40;99.90
10282;DHT22;5186;59.472;18.048;2022-12-18T09:49:43;2.40;99.90
10282;DHT22;5186;59.472;18.048;2022-12-18T09:54:45;2.50;99.90
10282;DHT22;5186;59.472;18.048;2022-12-18T09:57:20;2.50;99.90
10282;DHT22;5186;59.472;18.048;2022-12-18T09:59:51;2.50;99.90
10282;DHT22;5186;59.472;18.048;2022-12-18T10:02:26;2.50;99.90
10282;DHT22;5186;59.472;18.048;2022-12-18T10:05:07;2.50;99.90
10282;DHT22;5186;59.472;18.048;2022-12-18T10:07:49;2.50;99.90
10282;DHT22;5186;59.472;18.048;2022-12-18T10:10:32;2.50;99.90
10282;DHT22;5186;59.472;18.048;2022-12-18T10:13:16;2.50;99.90
10282;DHT22;5186;59.472;18.048;2022-12-18T10:16:16;2.60;99.90
10282;DHT22;5186;59.472;18.048;2022-12-18T10:19:01;2.60;99.90
10282;DHT22;5186;59.472;18.048;2022-12-18T10:21:41;2.60;99.90
10282;DHT22;5186;59.472;18.048;2022-12-18T10:26:43;2.70;99.90
10282;DHT22;5186;59.472;18.048;2022-12-18T10:29:12;2.70;99.90
10282;DHT22;5186;59.472;18.048;2022-12-18T10:31:38;2.70;99.90
10282;DHT22;5186;59.472;18.048;2022-12-18T10:34:04;2.80;99.90
10282;DHT22;5186;59.472;18.048;2022-12-18T10:36:32;2.80;99.90
10282;DHT22;5186;59.472;18.048;2022-12-18T10:39:22;2.80;99.90
10282;DHT22;5186;59.472;18.048;2022-12-18T10:41:51;2.80;99.90
10282;DHT22;5186;59.472;18.048;2022-12-18T10:44:26;2.80;99.90
10282;DHT22;5186;59.472;18.048;2022-12-18T10:47:03;2.80;99.90
10282;DHT22;5186;59.472;18.048;2022-12-18T10:49:32;2.80;99.90
10282;DHT22;5186;59.472;18.048;2022-12-18T10:52:18;2.90;99.90
10282;DHT22;5186;59.472;18.048;2022-12-18T10:54:52;2.90;99.90
10282;DHT22;5186;59.472;18.048;2022-12-18T10:57:39;2.90;99.90
10282;DHT22;5186;59.472;18.048;2022-12-18T11:00:25;2.90;99.90
10282;DHT22;5186;59.472;18.048;2022-12-18T11:02:51;2.90;99.90
10282;DHT22;5186;59.472;18.048;2022-12-18T11:05:27;2.90;99.90
10282;DHT22;5186;59.472;18.048;2022-12-18T11:07:52;3.00;99.90
10282;DHT22;5186;59.472;18.048;2022-12-18T11:10:26;3.00;99.90
10282;DHT22;5186;59.472;18.048;2022-12-18T11:12:53;3.00;99.90
10282;DHT22;5186;59.472;18.048;2022-12-18T11:15:21;3.00;99.90
10282;DHT22;5186;59.472;18.048;2022-12-18T11:17:50;3.00;99.90
10282;DHT22;5186;59.472;18.048;2022-12-18T11:20:36;3.00;99.90
10282;DHT22;5186;59.472;18.048;2022-12-18T11:23:05;3.00;99.90
10282;DHT22;5186;59.472;18.048;2022-12-18T11:25:32;3.00;99.90
10282;DHT22;5186;59.472;18.048;2022-12-18T11:30:47;3.10;99.90
10282;DHT22;5186;59.472;18.048;2022-12-18T11:33:20;3.00;99.90
10282;DHT22;5186;59.472;18.048;2022-12-18T11:35:55;3.10;99.90
10282;DHT22;5186;59.472;18.048;2022-12-18T11:38:24;3.10;99.90
10282;DHT22;5186;59.472;18.048;2022-12-18T11:43:42;3.10;99.90
10282;DHT22;5186;59.472;18.048;2022-12-18T11:46:33;3.00;99.90
10282;DHT22;5186;59.472;18.048;2022-12-18T11:54:25;3.10;99.90
10282;DHT22;5186;59.472;18.048;2022-12-18T11:56:58;3.10;99.90
10282;DHT22;5186;59.472;18.048;2022-12-18T12:02:17;3.10;99.90
10282;DHT22;5186;59.472;18.048;2022-12-18T12:04:50;3.10;99.90
10282;DHT22;5186;59.472;18.048;2022-12-18T12:18:29;3.20;99.90
10282;DHT22;5186;59.472;18.048;2022-12-18T12:21:26;3.20;99.90
10282;DHT22;5186;59.472;18.048;2022-12-18T12:24:18;3.20;99.90
10282;DHT22;5186;59.472;18.048;2022-12-18T12:27:01;3.20;99.90
10282;DHT22;5186;59.472;18.048;2022-12-18T12:32:38;3.30;99.90
10282;DHT22;5186;59.472;18.048;2022-12-18T12:35:11;3.30;99.90
10282;DHT22;5186;59.472;18.048;2022-12-18T12:38:09;3.30;99.90
10282;DHT22;5186;59.472;18.048;2022-12-18T12:40:41;3.30;99.90
10282;DHT22;5186;59.472;18.048;2022-12-18T12:45:55;3.30;99.90
10282;DHT22;5186;59.472;18.048;2022-12-18T12:48:42;3.30;99.90
10282;DHT22;5186;59.472;18.048;2022-12-18T12:51:22;3.40;99.90
10282;DHT22;5186;59.472;18.048;2022-12-18T12:53:49;3.40;99.90
10282;DHT22;5186;59.472;18.048;2022-12-18T12:56:17;3.40;99.90
10282;DHT22;5186;59.472;18.048;2022-12-18T12:59:02;3.40;99.90
10282;DHT22;5186;59.472;18.048;2022-12-18T13:01:49;3.40;99.90
10282;DHT22;5186;59.472;18.048;2022-12-18T13:07:24;3.50;99.90
10282;DHT22;5186;59.472;18.048;2022-12-18T13:10:12;3.50;99.90
10282;DHT22;5186;59.472;18.048;2022-12-18T13:13:14;3.50;99.90
10282;DHT22;5186;59.472;18.048;2022-12-18T13:18:24;3.50;99.90
10282;DHT22;5186;59.472;18.048;2022-12-18T13:21:25;3.50;99.90
10282;DHT22;5186;59.472;18.048;2022-12-18T13:23:52;3.60;99.90
10282;DHT22;5186;59.472;18.048;2022-12-18T13:34:33;3.60;99.90
10282;DHT22;5186;59.472;18.048;2022-12-18T13:39:56;3.70;99.90
10282;DHT22;5186;59.472;18.048;2022-12-18T13:42:31;3.70;99.90
10282;DHT22;5186;59.472;18.048;2022-12-18T13:45:50;3.70;99.90
10282;DHT22;5186;59.472;18.048;2022-12-18T13:48:26;3.70;99.90
10282;DHT22;5186;59.472;18.048;2022-12-18T13:51:00;3.70;99.90
10282;DHT22;5186;59.472;18.048;2022-12-18T13:53:31;3.70;99.90
10282;DHT22;5186;59.472;18.048;2022-12-18T13:55:58;3.70;99.90
10282;DHT22;5186;59.472;18.048;2022-12-18T13:58:23;3.70;99.90
10282;DHT22;5186;59.472;18.048;2022-12-18T14:00:49;3.80;99.90
10282;DHT22;5186;59.472;18.048;2022-12-18T14:03:24;3.80;99.90
10282;DHT22;5186;59.472;18.048;2022-12-18T14:06:02;3.80;99.90
10282;DHT22;5186;59.472;18.048;2022-12-18T14:08:42;3.70;99.90
10282;DHT22;5186;59.472;18.048;2022-12-18T14:11:19;3.80;99.90
10282;DHT22;5186;59.472;18.048;2022-12-18T14:13:46;3.80;99.90
10282;DHT22;5186;59.472;18.048;2022-12-18T14:16:14;3.80;99.90
10282;DHT22;5186;59.472;18.048;2022-12-18T14:18:52;3.80;99.90
10282;DHT22;5186;59.472;18.048;2022-12-18T14:21:22;3.80;99.90
10282;DHT22;5186;59.472;18.048;2022-12-18T14:23:48;3.90;99.90
10282;DHT22;5186;59.472;18.048;2022-12-18T14:26:23;3.90;99.90
10282;DHT22;5186;59.472;18.048;2022-12-18T14:28:50;3.90;99.90
10282;DHT22;5186;59.472;18.048;2022-12-18T14:31:25;3.90;99.90
10282;DHT22;5186;59.472;18.048;2022-12-18T14:33:52;3.90;99.90
10282;DHT22;5186;59.472;18.048;2022-12-18T14:36:20;3.90;99.90
10282;DHT22;5186;59.472;18.048;2022-12-18T14:38:51;3.90;99.90
10282;DHT22;5186;59.472;18.048;2022-12-18T14:41:19;3.90;99.90
10282;DHT22;5186;59.472;18.048;2022-12-18T14:43:47;3.90;99.90
10282;DHT22;5186;59.472;18.048;2022-12-18T14:48:59;3.90;99.90
10282;DHT22;5186;59.472;18.048;2022-12-18T14:51:28;3.90;99.90
10282;DHT22;5186;59.472;18.048;2022-12-18T14:53:57;3.90;99.90
10282;DHT22;5186;59.472;18.048;2022-12-18T14:56:35;3.80;99.90
10282;DHT22;5186;59.472;18.048;2022-12-18T14:59:03;3.90;99.90
10282;DHT22;5186;59.472;18.048;2022-12-18T15:01:36;3.80;99.90
10282;DHT22;5186;59.472;18.048;2022-12-18T15:04:04;3.80;99.90
10282;DHT22;5186;59.472;18.048;2022-12-18T15:06:37;3.80;99.90
10282;DHT22;5186;59.472;18.048;2022-12-18T15:09:25;3.80;99.90
10282;DHT22;5186;59.472;18.048;2022-12-18T15:12:00;3.80;99.90
10282;DHT22;5186;59.472;18.048;2022-12-18T15:14:40;3.80;99.90
10282;DHT22;5186;59.472;18.048;2022-12-18T15:17:26;3.80;99.90
10282;DHT22;5186;59.472;18.048;2022-12-18T15:19:59;3.80;99.90
10282;DHT22;5186;59.472;18.048;2022-12-18T15:22:35;3.90;99.90
10282;DHT22;5186;59.472;18.048;2022-12-18T15:25:02;3.90;99.90
10282;DHT22;5186;59.472;18.048;2022-12-18T15:27:36;3.90;99.90
10282;DHT22;5186;59.472;18.048;2022-12-18T15:32:38;3.90;99.90
10282;DHT22;5186;59.472;18.048;2022-12-18T15:37:36;3.90;99.90
10282;DHT22;5186;59.472;18.048;2022-12-18T15:40:03;3.90;99.90
10282;DHT22;5186;59.472;18.048;2022-12-18T15:42:29;3.90;99.90
10282;DHT22;5186;59.472;18.048;2022-12-18T15:45:13;3.90;99.90
10282;DHT22;5186;59.472;18.048;2022-12-18T15:47:39;3.90;99.90
10282;DHT22;5186;59.472;18.048;2022-12-18T15:50:07;3.90;99.90
10282;DHT22;5186;59.472;18.048;2022-12-18T15:52:41;3.90;99.90
10282;DHT22;5186;59.472;18.048;2022-12-18T15:55:19;3.90;99.90
10282;DHT22;5186;59.472;18.048;2022-12-18T15:58:04;3.90;99.90
10282;DHT22;5186;59.472;18.048;2022-12-18T16:00:32;3.90;99.90
10282;DHT22;5186;59.472;18.048;2022-12-18T16:02:58;3.90;99.90
10282;DHT22;5186;59.472;18.048;2022-12-18T16:05:24;3.90;99.90
10282;DHT22;5186;59.472;18.048;2022-12-18T16:07:49;3.90;99.90
10282;DHT22;5186;59.472;18.048;2022-12-18T16:10:15;3.90;99.90
10282;DHT22;5186;59.472;18.048;2022-12-18T16:12:41;4.00;99.90
10282;DHT22;5186;59.472;18.048;2022-12-18T16:15:07;4.00;99.90
10282;DHT22;5186;59.472;18.048;2022-12-18T16:17:35;3.90;99.90
10282;DHT22;5186;59.472;18.048;2022-12-18T16:20:01;3.90;99.90
10282;DHT22;5186;59.472;18.048;2022-12-18T16:22:29;3.90;99.90
10282;DHT22;5186;59.472;18.048;2022-12-18T16:24:55;3.90;99.90
10282;DHT22;5186;59.472;18.048;2022-12-18T16:27:22;3.90;99.90
10282;DHT22;5186;59.472;18.048;2022-12-18T16:29:48;3.90;99.90
10282;DHT22;5186;59.472;18.048;2022-12-18T16:32:17;3.90;99.90
10282;DHT22;5186;59.472;18.048;2022-12-18T16:34:43;3.80;99.90
10282;DHT22;5186;59.472;18.048;2022-12-18T16:37:11;3.90;99.90
10282;DHT22;5186;59.472;18.048;2022-12-18T16:39:38;3.90;99.90
10282;DHT22;5186;59.472;18.048;2022-12-18T16:42:13;3.90;99.90
10282;DHT22;5186;59.472;18.048;2022-12-18T16:44:40;3.90;99.90
10282;DHT22;5186;59.472;18.048;2022-12-18T16:47:06;3.90;99.90
10282;DHT22;5186;59.472;18.048;2022-12-18T16:49:32;3.90;99.90
10282;DHT22;5186;59.472;18.048;2022-12-18T16:51:57;3.90;99.90
10282;DHT22;5186;59.472;18.048;2022-12-18T16:54:23;3.90;99.90
10282;DHT22;5186;59.472;18.048;2022-12-18T16:56:50;3.90;99.90
10282;DHT22;5186;59.472;18.048;2022-12-18T16:59:16;3.90;99.90
10282;DHT22;5186;59.472;18.048;2022-12-18T17:01:42;3.90;99.90
10282;DHT22;5186;59.472;18.048;2022-12-18T17:04:08;3.80;99.90
10282;DHT22;5186;59.472;18.048;2022-12-18T17:06:38;3.80;99.90
10282;DHT22;5186;59.472;18.048;2022-12-18T17:09:07;3.80;99.90
10282;DHT22;5186;59.472;18.048;2022-12-18T17:11:34;3.80;99.90
10282;DHT22;5186;59.472;18.048;2022-12-18T17:14:06;3.80;99.90
10282;DHT22;5186;59.472;18.048;2022-12-18T17:16:31;3.80;99.90
10282;DHT22;5186;59.472;18.048;2022-12-18T17:18:57;3.80;99.90
10282;DHT22;5186;59.472;18.048;2022-12-18T17:21:22;3.80;99.90
10282;DHT22;5186;59.472;18.048;2022-12-18T17:23:48;3.70;99.90